メインページ
METAR-TAF:

METAR-TAF

空港 :

L. M. Clayton Airport

ウルフポイント, モンタナ州, アメリカ合衆国

緯度: 48-05-40N, 経度: 105-34-38W, 海抜: 605m

現時点の気象観測

当レポートは22分前の10:53(UTC)に作成
南/南西の風 4kt
気温 -5°C
湿度 79%
気圧 1011 hPa
視程: 16.1km
晴天

METAR: KOLF 221053Z AUTO 21004KT 10SM CLR M05/M08 A2984 RMK AO2 SLP127 T10501083

時間: 04:15 (11:15 UTC)

予報

当レポートは5時間38分前の05:37(UTC)に作成
予報は22日の 06時(UTC)から 23日の 06時(UTC)まで有効
変向風 3kt
視程: 10km
高度25000ftの雲はほとんどない
22日の 0900時(UTC)から
変向風 5kt
視程: 10km
高度25000ftの雲は散在している

TAF: KOLF 220537Z 2206/2306 VRB03KT P6SM FEW250 FM220900 VRB05KT P6SM SCT250 WS020/29035KT

4,000以上の空港の気象観測と天気予報(METAR報とTAF報)

利用可能な観測所は地図上に黄色い丸と赤い丸で示す。

丸の上にカーソルを重ねると観測所名を参照できる。

次にクリックすると気象観測と天気予報を参照できる。

マップの切り替え:黒色「×」印の緑ボタンをクリックして拡大、「-」印の緑ボタンをクリックして縮小、緑色の三角印をクリックして隣りの地図に切り替え


METAR-TAF: